Time;durP1;ratioP1;P1;durP2;ratioP2;P2;SDS_P1;SDS_P2;PMS_P1;PMS_P2;Temp;Humidity;BMP_temperature;BMP_pressure;BME280_temperature;BME280_humidity;BME280_pressure;Samples;Min_cycle;Max_cycle;Signal;HPM_P1;HPM_P2
2022/07/03 00:00:24;;;;;;;7.00;1.65;;;;;;;16.58;100.00;96453.34;5045152;28;20024;-78
2022/07/03 00:02:49;;;;;;;6.07;1.45;;;;;;;16.55;100.00;96451.88;5066300;28;20043;-79
2022/07/03 00:05:16;;;;;;;2.38;1.35;;;;;;;16.57;100.00;96449.06;5064513;28;20029;-78
2022/07/03 00:07:41;;;;;;;3.33;1.52;;;;;;;16.56;100.00;96458.81;5084113;28;20409;-78
2022/07/03 00:10:08;;;;;;;4.28;1.38;;;;;;;16.64;100.00;96458.72;5061813;28;20040;-79
2022/07/03 00:12:34;;;;;;;2.80;1.30;;;;;;;16.63;100.00;96450.91;5051378;28;20064;-78
2022/07/03 00:14:59;;;;;;;2.95;1.38;;;;;;;16.60;100.00;96452.16;5066411;28;20039;-78
2022/07/03 00:17:25;;;;;;;2.85;1.33;;;;;;;16.64;100.00;96450.75;5085498;28;20391;-78
2022/07/03 00:19:51;;;;;;;3.05;1.08;;;;;;;16.53;100.00;96450.41;5083585;28;20052;-79
2022/07/03 00:22:17;;;;;;;5.47;1.40;;;;;;;16.52;100.00;96441.63;5083710;28;20348;-78
2022/07/03 00:24:47;;;;;;;3.22;1.50;;;;;;;16.54;100.00;96446.78;5070150;28;20887;-78
2022/07/03 00:27:15;;;;;;;2.45;1.30;;;;;;;16.45;100.00;96438.13;5083377;28;20090;-78
2022/07/03 00:29:44;;;;;;;3.95;1.70;;;;;;;16.50;100.00;96449.00;5067454;28;20095;-78
2022/07/03 00:32:12;;;;;;;4.32;1.10;;;;;;;16.49;100.00;96442.84;5082279;28;20032;-78
2022/07/03 00:34:39;;;;;;;4.78;1.30;;;;;;;16.45;100.00;96449.53;5083496;28;20063;-78
2022/07/03 00:37:08;;;;;;;4.57;1.83;;;;;;;16.48;100.00;96443.03;5080607;28;20112;-78
2022/07/03 00:39:39;;;;;;;2.60;1.20;;;;;;;16.45;100.00;96443.41;5083649;28;20036;-78
2022/07/03 00:42:07;;;;;;;2.83;1.40;;;;;;;16.45;100.00;96440.75;5080032;28;20021;-78
2022/07/03 00:44:37;;;;;;;3.33;1.30;;;;;;;16.43;100.00;96438.31;5083174;28;20036;-78
2022/07/03 00:47:05;;;;;;;2.85;1.67;;;;;;;16.44;100.00;96439.13;5062380;28;20039;-78
2022/07/03 00:49:33;;;;;;;2.70;1.50;;;;;;;16.40;100.00;96435.22;5086904;28;20066;-78
2022/07/03 00:52:05;;;;;;;2.65;1.40;;;;;;;16.41;100.00;96437.66;5084055;28;20038;-78
2022/07/03 00:54:33;;;;;;;2.90;1.23;;;;;;;16.39;100.00;96436.22;5067821;28;20036;-78
2022/07/03 00:57:00;;;;;;;3.75;1.20;;;;;;;16.46;100.00;96434.44;5083342;28;20074;-79
2022/07/03 00:59:26;;;;;;;2.22;1.17;;;;;;;16.45;100.00;96427.50;5080728;28;20028;-78
2022/07/03 01:02:02;;;;;;;4.63;1.33;;;;;;;16.41;100.00;96431.56;5054342;28;20035;-78
2022/07/03 01:04:40;;;;;;;3.35;1.20;;;;;;;16.37;100.00;96433.75;5030181;28;20089;-79
2022/07/03 01:07:12;;;;;;;3.95;1.55;;;;;;;16.32;100.00;96433.50;5048357;28;20034;-78
2022/07/03 01:10:22;;;;;;;4.25;1.50;;;;;;;16.30;100.00;96429.38;5050113;28;20040;-78
2022/07/03 01:13:03;;;;;;;2.55;1.42;;;;;;;16.27;100.00;96431.44;4946633;28;20735;-78
2022/07/03 01:16:01;;;;;;;2.63;1.48;;;;;;;16.21;100.00;96429.53;5018996;28;20036;-78
2022/07/03 01:18:40;;;;;;;7.22;4.55;;;;;;;16.20;100.00;96432.38;4993552;28;20046;-79
2022/07/03 01:21:15;;;;;;;3.67;1.70;;;;;;;16.20;100.00;96432.38;5058752;28;20406;-78
2022/07/03 01:24:02;;;;;;;4.97;2.20;;;;;;;16.14;100.00;96435.78;5054236;28;20023;-79
2022/07/03 01:26:34;;;;;;;3.22;1.50;;;;;;;16.07;100.00;96430.41;5035722;28;20028;-77
2022/07/03 01:29:12;;;;;;;2.53;1.45;;;;;;;16.09;100.00;96432.88;5039506;28;20024;-81
2022/07/03 01:31:42;;;;;;;2.72;1.75;;;;;;;16.19;100.00;96422.75;5060441;28;20134;-82
2022/07/03 01:34:14;;;;;;;4.22;1.63;;;;;;;16.10;100.00;96426.56;5071259;28;20036;-78
2022/07/03 01:36:42;;;;;;;4.75;1.63;;;;;;;16.11;100.00;96436.97;5085384;28;20522;-77
2022/07/03 01:39:11;;;;;;;3.88;1.90;;;;;;;16.05;100.00;96429.78;5061987;28;20059;-77
2022/07/03 01:41:37;;;;;;;2.70;1.30;;;;;;;15.96;100.00;96433.53;5057845;28;20023;-77
2022/07/03 01:44:05;;;;;;;3.33;1.73;;;;;;;15.90;100.00;96434.31;5070274;28;20030;-78
2022/07/03 01:46:32;;;;;;;2.63;1.63;;;;;;;15.88;100.00;96428.38;5050674;28;20032;-77
2022/07/03 01:48:59;;;;;;;3.78;1.85;;;;;;;15.81;100.00;96427.47;5067514;28;20028;-78
2022/07/03 01:51:26;;;;;;;4.35;1.92;;;;;;;15.79;100.00;96430.31;5086386;28;20402;-77
2022/07/03 01:53:53;;;;;;;6.22;2.17;;;;;;;15.76;100.00;96428.03;5070745;28;20040;-78
2022/07/03 01:56:21;;;;;;;3.55;1.90;;;;;;;15.69;100.00;96432.44;5087501;28;20041;-79
2022/07/03 01:58:48;;;;;;;2.85;1.85;;;;;;;15.69;100.00;96432.44;5071584;28;20041;-77
2022/07/03 02:01:48;;;;;;;4.75;1.90;;;;;;;15.57;100.00;96426.75;5051329;28;20048;-77
2022/07/03 02:04:38;;;;;;;5.18;1.63;;;;;;;15.57;100.00;96421.47;5055771;28;20032;-79
2022/07/03 02:07:06;;;;;;;3.13;1.67;;;;;;;15.41;100.00;96425.13;5035203;28;20535;-77
2022/07/03 02:09:44;;;;;;;3.45;1.55;;;;;;;15.38;100.00;96424.69;5032778;28;20047;-79
2022/07/03 02:12:13;;;;;;;2.67;1.65;;;;;;;15.38;100.00;96422.84;5055422;28;20052;-79
2022/07/03 02:14:45;;;;;;;3.55;2.00;;;;;;;15.26;100.00;96411.91;5072853;28;20473;-79
2022/07/03 02:17:16;;;;;;;2.83;1.40;;;;;;;15.32;100.00;96411.19;5048714;28;20556;-77
2022/07/03 02:19:59;;;;;;;3.30;1.60;;;;;;;15.28;100.00;96411.72;5060498;28;20536;-77
2022/07/03 02:22:48;;;;;;;3.20;1.65;;;;;;;15.28;100.00;96412.53;5069836;28;20017;-77
2022/07/03 02:25:19;;;;;;;3.80;1.70;;;;;;;15.21;100.00;96414.28;5047752;28;20041;-77
2022/07/03 02:27:56;;;;;;;2.40;1.52;;;;;;;15.13;100.00;96421.53;5046245;28;20033;-78
2022/07/03 02:30:27;;;;;;;4.05;1.80;;;;;;;15.15;100.00;96415.00;5053577;28;20037;-76
2022/07/03 02:32:57;;;;;;;3.22;1.77;;;;;;;15.21;100.00;96416.13;5041388;28;20055;-77
2022/07/03 02:35:31;;;;;;;2.15;1.30;;;;;;;15.23;100.00;96422.88;5045588;28;20036;-76
2022/07/03 02:37:59;;;;;;;4.70;1.90;;;;;;;15.24;100.00;96426.34;5064464;28;20029;-77
2022/07/03 02:40:39;;;;;;;5.43;1.70;;;;;;;15.21;100.00;96424.06;5036904;28;20040;-76
2022/07/03 02:43:14;;;;;;;5.50;1.80;;;;;;;15.15;100.00;96422.97;5044956;28;20659;-77
2022/07/03 02:45:51;;;;;;;3.80;1.63;;;;;;;15.09;100.00;96421.88;5065139;28;20071;-77
2022/07/03 02:48:40;;;;;;;2.60;1.58;;;;;;;15.12;100.00;96430.44;5049067;28;20039;-77
2022/07/03 02:51:13;;;;;;;3.13;1.50;;;;;;;15.05;100.00;96439.13;5028597;28;20025;-76
2022/07/03 02:53:48;;;;;;;3.75;1.67;;;;;;;15.06;100.00;96434.66;5032323;28;20145;-77
2022/07/03 02:56:21;;;;;;;2.70;1.52;;;;;;;15.03;100.00;96438.50;5066530;28;20036;-77
2022/07/03 02:59:29;;;;;;;1.70;1.23;;;;;;;14.98;100.00;96434.75;5059841;28;20028;-78
2022/07/03 03:02:03;;;;;;;2.75;1.67;;;;;;;14.96;100.00;96426.19;5008712;28;20037;-77
2022/07/03 03:04:31;;;;;;;4.60;1.98;;;;;;;14.95;100.00;96427.16;5049202;28;20544;-77
2022/07/03 03:07:07;;;;;;;2.92;1.42;;;;;;;14.91;100.00;96428.53;5068307;28;20029;-77
2022/07/03 03:09:47;;;;;;;4.65;1.73;;;;;;;14.91;100.00;96424.06;5031661;28;20032;-77
2022/07/03 03:12:14;;;;;;;5.73;1.70;;;;;;;14.87;100.00;96429.91;5047617;28;20083;-77
2022/07/03 03:14:44;;;;;;;2.65;1.85;;;;;;;14.84;100.00;96431.91;5066246;28;20510;-77
2022/07/03 03:17:18;;;;;;;4.88;2.08;;;;;;;14.93;100.00;96429.19;5050468;28;20043;-77
2022/07/03 03:19:48;;;;;;;6.07;2.07;;;;;;;14.94;100.00;96425.53;5059317;28;20067;-77
2022/07/03 03:22:48;;;;;;;4.65;2.17;;;;;;;14.95;100.00;96424.50;5050989;28;20087;-77
2022/07/03 03:25:13;;;;;;;3.37;1.90;;;;;;;14.90;100.00;96433.00;5033051;28;20508;-77
2022/07/03 03:27:40;;;;;;;2.90;1.50;;;;;;;14.95;100.00;96438.56;5052335;28;20039;-78
2022/07/03 03:30:07;;;;;;;3.67;1.87;;;;;;;14.93;100.00;96440.59;5062128;28;20031;-77
2022/07/03 03:32:35;;;;;;;3.33;1.70;;;;;;;14.92;100.00;96440.75;5070376;28;20442;-77
2022/07/03 03:35:02;;;;;;;4.57;2.20;;;;;;;14.92;100.00;96438.09;5020067;28;20029;-77
2022/07/03 03:37:28;;;;;;;3.00;1.90;;;;;;;14.88;100.00;96436.84;5050917;28;20029;-77
2022/07/03 03:39:54;;;;;;;3.63;1.90;;;;;;;14.85;100.00;96449.44;5039244;28;20584;-77
2022/07/03 03:42:19;;;;;;;2.60;1.53;;;;;;;14.85;100.00;96448.59;5045160;28;20033;-77
2022/07/03 03:44:45;;;;;;;3.57;1.80;;;;;;;14.89;100.00;96451.72;5052662;28;20493;-77
2022/07/03 03:47:11;;;;;;;2.93;1.90;;;;;;;14.84;100.00;96447.78;5035642;28;20024;-77
2022/07/03 03:49:37;;;;;;;2.63;1.40;;;;;;;14.92;100.00;96456.63;5065730;28;20142;-77
2022/07/03 03:52:03;;;;;;;3.57;2.00;;;;;;;14.92;100.00;96448.69;5051211;28;20037;-77
2022/07/03 03:54:28;;;;;;;4.60;1.87;;;;;;;14.94;100.00;96454.66;5052343;28;20621;-77
2022/07/03 03:56:54;;;;;;;2.83;1.70;;;;;;;14.94;100.00;96447.53;5032445;28;20033;-77
2022/07/03 03:59:20;;;;;;;3.80;2.23;;;;;;;14.95;100.00;96451.81;5048483;28;20088;-77
2022/07/03 04:01:47;;;;;;;2.78;1.35;;;;;;;14.99;100.00;96454.91;5052295;28;20040;-77
2022/07/03 04:04:17;;;;;;;3.38;1.90;;;;;;;15.06;100.00;96453.22;5069808;28;20040;-77
2022/07/03 04:06:44;;;;;;;3.23;1.80;;;;;;;15.11;100.00;96452.66;5052658;28;20103;-77
2022/07/03 04:09:09;;;;;;;3.80;2.00;;;;;;;15.12;100.00;96455.09;5035120;28;20119;-77
2022/07/03 04:11:35;;;;;;;3.33;1.93;;;;;;;15.16;100.00;96461.72;5070047;28;20486;-76
2022/07/03 04:14:01;;;;;;;3.13;1.60;;;;;;;15.23;100.00;96456.50;5031046;28;20682;-77
2022/07/03 04:16:27;;;;;;;5.30;1.90;;;;;;;15.30;100.00;96457.41;5049855;28;20040;-77
2022/07/03 04:18:53;;;;;;;3.40;1.90;;;;;;;15.33;100.00;96465.81;5051585;28;20028;-77
2022/07/03 04:21:19;;;;;;;3.53;1.80;;;;;;;15.39;100.00;96458.97;5052213;28;20380;-77
2022/07/03 04:23:44;;;;;;;2.22;1.40;;;;;;;15.44;100.00;96463.72;5051987;28;20043;-77
2022/07/03 04:26:10;;;;;;;4.13;1.83;;;;;;;15.50;100.00;96453.19;5052151;28;20036;-77
2022/07/03 04:28:36;;;;;;;3.50;1.73;;;;;;;15.55;100.00;96457.94;5051750;28;20070;-77
2022/07/03 04:31:01;;;;;;;3.58;1.77;;;;;;;15.54;100.00;96461.59;5069929;28;20059;-77
2022/07/03 04:33:27;;;;;;;5.03;1.88;;;;;;;15.60;100.00;96460.03;5070136;28;20474;-77
2022/07/03 04:35:53;;;;;;;3.22;1.83;;;;;;;15.63;100.00;96460.50;5069918;28;20033;-77
2022/07/03 04:38:19;;;;;;;3.72;1.63;;;;;;;15.71;100.00;96471.00;5069779;28;20736;-77
2022/07/03 04:40:44;;;;;;;3.63;1.85;;;;;;;15.80;100.00;96461.13;5040332;28;20372;-77
2022/07/03 04:43:10;;;;;;;3.77;2.00;;;;;;;15.89;100.00;96467.13;5051501;28;20025;-77
2022/07/03 04:45:36;;;;;;;3.10;1.50;;;;;;;15.94;100.00;96460.28;5048140;28;20395;-77
2022/07/03 04:48:01;;;;;;;5.45;1.90;;;;;;;16.06;100.00;96454.47;5046090;28;20032;-77
2022/07/03 04:50:27;;;;;;;5.15;2.03;;;;;;;16.15;100.00;96459.47;5052036;28;20037;-77
2022/07/03 04:52:53;;;;;;;3.40;2.00;;;;;;;16.25;100.00;96459.97;5051339;28;20048;-77
2022/07/03 04:55:18;;;;;;;2.78;1.80;;;;;;;16.34;100.00;96463.34;5064663;28;20699;-77
2022/07/03 04:57:44;;;;;;;5.53;1.88;;;;;;;16.41;100.00;96458.09;5057673;28;20024;-77
2022/07/03 05:00:10;;;;;;;3.08;1.88;;;;;;;16.52;100.00;96459.41;5036783;28;20056;-77
2022/07/03 05:02:36;;;;;;;3.60;2.05;;;;;;;16.62;100.00;96460.72;5089733;28;20390;-77
2022/07/03 05:05:03;;;;;;;2.72;1.52;;;;;;;16.73;100.00;96460.22;5054961;28;20036;-77
2022/07/03 05:07:28;;;;;;;2.75;1.42;;;;;;;16.90;100.00;96458.13;5043030;28;20036;-77
2022/07/03 05:09:54;;;;;;;5.68;1.83;;;;;;;17.07;100.00;96471.09;5044236;28;20051;-77
2022/07/03 05:12:20;;;;;;;4.88;2.45;;;;;;;17.20;100.00;96474.69;5050043;28;20031;-77
2022/07/03 05:14:46;;;;;;;7.47;3.47;;;;;;;17.34;100.00;96474.78;5068299;28;20391;-77
2022/07/03 05:17:11;;;;;;;3.15;1.42;;;;;;;17.54;100.00;96480.16;5034059;28;20029;-77
2022/07/03 05:19:38;;;;;;;2.88;1.40;;;;;;;17.66;100.00;96479.41;5051032;28;20068;-77
2022/07/03 05:22:04;;;;;;;2.53;1.65;;;;;;;17.81;100.00;96484.66;5051500;28;20032;-77
2022/07/03 05:24:30;;;;;;;2.78;1.50;;;;;;;17.96;100.00;96473.03;5069459;28;20098;-78
2022/07/03 05:26:55;;;;;;;2.72;1.58;;;;;;;18.11;100.00;96479.84;5050765;28;20063;-78
2022/07/03 05:29:21;;;;;;;3.53;1.63;;;;;;;18.29;100.00;96478.44;5066335;28;20047;-78
2022/07/03 05:31:47;;;;;;;1.90;1.50;;;;;;;18.43;100.00;96479.28;5036680;28;20055;-78
2022/07/03 05:34:12;;;;;;;4.82;1.42;;;;;;;18.55;100.00;96475.00;5055109;28;20051;-77
2022/07/03 05:36:38;;;;;;;3.53;1.52;;;;;;;18.61;100.00;96475.03;5072120;28;20248;-77
2022/07/03 05:41:48;;;;;;;3.15;1.38;;;;;;;18.80;100.00;96470.75;5072504;28;20028;-77
2022/07/03 05:44:13;;;;;;;4.35;1.70;;;;;;;18.86;100.00;96473.63;5078039;28;20398;-77
2022/07/03 05:46:39;;;;;;;4.32;1.60;;;;;;;18.97;100.00;96481.81;5054405;28;20036;-78
2022/07/03 05:49:05;;;;;;;4.00;1.98;;;;;;;19.28;100.00;96472.31;5071873;28;20479;-78
2022/07/03 05:51:31;;;;;;;2.35;1.40;;;;;;;19.45;100.00;96476.22;5069448;28;20048;-78
2022/07/03 05:53:56;;;;;;;2.47;1.52;;;;;;;19.76;100.00;96480.84;5054176;28;20033;-77
2022/07/03 05:56:22;;;;;;;4.38;1.73;;;;;;;19.85;100.00;96486.78;5053459;28;20043;-78
2022/07/03 05:58:48;;;;;;;3.28;1.75;;;;;;;20.08;100.00;96478.25;5042239;28;20494;-77
2022/07/03 06:01:14;;;;;;;3.53;1.52;;;;;;;20.28;100.00;96478.16;5072609;28;20028;-78
2022/07/03 06:03:39;;;;;;;4.72;1.60;;;;;;;20.50;100.00;96483.97;5053212;28;20078;-78
2022/07/03 06:06:05;;;;;;;3.75;1.60;;;;;;;20.76;100.00;96480.34;5071699;28;20479;-77
2022/07/03 06:08:31;;;;;;;2.25;1.17;;;;;;;20.90;100.00;96478.38;5036987;28;20033;-78
2022/07/03 06:10:56;;;;;;;2.53;1.35;;;;;;;21.27;100.00;96481.97;5038186;28;20036;-78
2022/07/03 06:13:22;;;;;;;1.60;1.15;;;;;;;21.40;100.00;96481.03;5070980;28;20111;-78
2022/07/03 06:15:48;;;;;;;2.35;1.23;;;;;;;21.41;100.00;96483.47;5060399;28;20025;-77
2022/07/03 06:18:15;;;;;;;3.17;1.65;;;;;;;21.53;96.42;96486.25;5042142;28;20404;-78
2022/07/03 06:20:40;;;;;;;3.72;1.60;;;;;;;21.67;96.87;96486.94;5034087;28;20024;-78
2022/07/03 06:23:06;;;;;;;5.75;2.67;;;;;;;21.97;96.05;96494.22;5036490;28;20029;-78
2022/07/03 06:25:32;;;;;;;3.17;1.40;;;;;;;22.11;95.47;96488.44;5066974;28;20031;-78
2022/07/03 06:27:57;;;;;;;3.08;1.45;;;;;;;22.26;92.62;96488.06;5050768;28;20066;-78
2022/07/03 06:30:23;;;;;;;3.42;1.10;;;;;;;22.15;91.04;96493.34;5028722;28;20036;-78
2022/07/03 06:32:49;;;;;;;1.70;1.30;;;;;;;22.66;91.33;96484.81;5053713;28;20625;-78
2022/07/03 06:35:15;;;;;;;2.20;1.10;;;;;;;22.92;87.75;96488.16;5071939;28;20482;-78
2022/07/03 06:37:40;;;;;;;6.03;1.50;;;;;;;23.19;85.75;96485.88;5054335;28;20127;-78
2022/07/03 06:40:06;;;;;;;3.20;1.00;;;;;;;22.97;83.79;96483.78;5055700;28;20098;-78
2022/07/03 06:42:32;;;;;;;3.30;1.40;;;;;;;23.12;81.97;96482.50;5040802;28;20024;-78
2022/07/03 06:44:58;;;;;;;2.00;1.20;;;;;;;23.34;84.19;96478.19;5086931;28;20028;-78
2022/07/03 06:47:23;;;;;;;2.45;1.10;;;;;;;23.67;80.74;96479.41;5053178;28;20052;-78
2022/07/03 06:49:49;;;;;;;2.70;1.50;;;;;;;23.65;78.53;96484.22;5072607;28;20119;-78
2022/07/03 06:52:15;;;;;;;2.28;1.10;;;;;;;24.29;78.44;96484.19;5058148;28;20039;-78
2022/07/03 06:54:43;;;;;;;4.25;1.23;;;;;;;24.32;79.07;96483.72;5034252;28;20537;-78
2022/07/03 06:57:13;;;;;;;2.80;1.30;;;;;;;24.53;72.96;96483.06;5056140;28;20032;-78
2022/07/03 06:59:39;;;;;;;2.35;1.05;;;;;;;24.37;71.57;96486.50;5032550;28;20033;-78
2022/07/03 07:02:05;;;;;;;2.05;1.13;;;;;;;24.34;72.75;96473.53;5059119;28;20039;-78
2022/07/03 07:04:31;;;;;;;2.35;1.15;;;;;;;24.74;73.56;96484.22;5052592;28;20044;-78
2022/07/03 07:06:56;;;;;;;3.42;1.23;;;;;;;25.15;68.68;96479.53;5044800;28;20096;-79
2022/07/03 07:09:22;;;;;;;1.83;1.00;;;;;;;25.03;68.11;96490.38;5027028;28;20045;-78
2022/07/03 07:11:48;;;;;;;2.38;1.30;;;;;;;25.46;70.08;96486.22;5070479;28;20111;-78
2022/07/03 07:14:13;;;;;;;1.70;1.05;;;;;;;25.10;64.39;96493.72;5071141;28;20398;-78
2022/07/03 07:16:39;;;;;;;1.52;1.02;;;;;;;25.30;65.41;96492.44;5049678;28;20060;-78
2022/07/03 07:19:05;;;;;;;2.30;1.33;;;;;;;24.90;66.47;96498.75;5045877;28;20111;-78
2022/07/03 07:21:30;;;;;;;1.77;1.10;;;;;;;25.38;67.77;96494.69;5041600;28;20044;-79
2022/07/03 07:23:56;;;;;;;2.30;1.00;;;;;;;25.44;64.20;96492.91;5065183;28;20009;-79
2022/07/03 07:26:22;;;;;;;4.38;1.30;;;;;;;25.78;61.37;96491.75;5065672;28;20105;-79
2022/07/03 07:28:47;;;;;;;3.13;1.33;;;;;;;25.66;61.03;96492.94;5063349;28;20518;-78
2022/07/03 07:31:13;;;;;;;1.42;1.02;;;;;;;25.55;62.45;96495.50;5069225;28;20082;-79
2022/07/03 07:33:41;;;;;;;1.30;1.08;;;;;;;25.85;61.77;96500.53;5051081;28;20024;-79
2022/07/03 07:36:06;;;;;;;3.85;1.50;;;;;;;25.83;61.67;96488.34;5051206;28;20117;-79
2022/07/03 07:38:33;;;;;;;1.92;1.35;;;;;;;25.85;60.31;96494.28;5029912;28;20025;-79
2022/07/03 07:40:59;;;;;;;3.33;1.33;;;;;;;26.24;59.07;96495.03;5051910;28;20024;-79
2022/07/03 07:43:25;;;;;;;2.80;1.30;;;;;;;26.40;57.91;96490.66;5042581;28;20028;-80
2022/07/03 07:45:52;;;;;;;2.03;1.20;;;;;;;26.61;56.91;96501.66;5064373;28;20043;-80
2022/07/03 07:48:18;;;;;;;1.33;1.08;;;;;;;26.69;57.06;96493.09;5045650;28;20033;-80
2022/07/03 07:50:44;;;;;;;4.13;1.55;;;;;;;26.72;57.18;96488.00;5063699;28;20040;-80
2022/07/03 07:53:10;;;;;;;2.30;1.40;;;;;;;27.32;56.19;96499.59;5076093;28;20055;-80
2022/07/03 07:55:36;;;;;;;2.38;1.35;;;;;;;27.77;54.42;96497.47;5055930;28;20024;-80
2022/07/03 07:58:01;;;;;;;2.65;1.00;;;;;;;27.66;52.46;96493.88;5041766;28;20035;-80
2022/07/03 08:00:27;;;;;;;4.45;1.30;;;;;;;27.65;54.75;96495.75;5051478;28;20036;-81
2022/07/03 08:05:37;;;;;;;1.80;1.20;;;;;;;28.01;51.98;96490.59;5070690;28;20029;-81
2022/07/03 08:08:13;;;;;;;2.50;1.10;;;;;;;28.06;49.36;96490.59;5057233;28;20494;-80
2022/07/03 08:10:48;;;;;;;1.58;1.00;;;;;;;28.11;50.59;96495.22;5036436;28;20100;-81
2022/07/03 08:13:16;;;;;;;1.42;1.02;;;;;;;28.03;48.68;96499.22;5055231;28;20063;-80
2022/07/03 08:15:42;;;;;;;5.07;1.27;;;;;;;28.16;48.03;96490.63;5049314;28;20131;-80
2022/07/03 08:18:09;;;;;;;3.63;1.10;;;;;;;28.89;47.57;96487.84;5070580;28;20025;-80
2022/07/03 08:20:36;;;;;;;1.92;1.00;;;;;;;28.63;47.46;96489.69;5057383;28;20028;-81
2022/07/03 08:23:02;;;;;;;1.30;0.90;;;;;;;28.82;47.42;96494.59;5055925;28;20033;-81
2022/07/03 08:25:29;;;;;;;1.42;1.02;;;;;;;28.70;46.56;96502.16;5052753;28;20036;-81
2022/07/03 08:27:59;;;;;;;0.98;0.75;;;;;;;28.92;45.38;96500.03;5073664;28;20146;-81
2022/07/03 08:30:25;;;;;;;1.95;1.15;;;;;;;29.69;42.59;96495.41;5040018;28;20040;-81
2022/07/03 08:32:54;;;;;;;1.55;1.00;;;;;;;29.86;42.34;96494.28;5064421;28;20028;-79
2022/07/03 08:35:20;;;;;;;1.17;0.80;;;;;;;29.08;43.00;96490.06;5069131;28;20032;-79
2022/07/03 08:37:47;;;;;;;1.38;0.90;;;;;;;29.65;42.69;96494.34;5037977;28;20037;-78
2022/07/03 08:40:15;;;;;;;3.97;2.70;;;;;;;30.00;41.64;96487.19;5049161;28;20053;-79
2022/07/03 08:42:46;;;;;;;2.45;1.52;;;;;;;29.58;41.92;96489.19;5052834;28;20035;-78
2022/07/03 08:45:18;;;;;;;0.90;0.80;;;;;;;29.96;40.07;96483.41;5037553;28;20123;-80
2022/07/03 08:47:46;;;;;;;4.10;1.15;;;;;;;30.10;39.93;96484.44;5020614;28;20111;-79
2022/07/03 08:50:13;;;;;;;4.40;0.90;;;;;;;30.26;39.70;96487.91;5051945;28;20036;-78
2022/07/03 08:52:41;;;;;;;1.60;0.82;;;;;;;30.34;39.40;96483.81;5047424;28;20497;-80
2022/07/03 08:55:07;;;;;;;3.22;0.80;;;;;;;30.71;39.44;96478.69;5047973;28;20355;-80
2022/07/03 08:57:36;;;;;;;2.25;1.00;;;;;;;30.41;38.06;96478.88;5032288;28;20537;-80
2022/07/03 09:00:05;;;;;;;2.33;1.17;;;;;;;29.63;39.74;96477.53;5033611;28;20123;-81
2022/07/03 09:02:32;;;;;;;1.33;0.80;;;;;;;30.16;40.67;96477.91;5029157;28;20029;-78
2022/07/03 09:04:59;;;;;;;3.08;1.08;;;;;;;30.25;37.92;96475.47;5064513;28;20464;-78
2022/07/03 09:07:34;;;;;;;2.40;1.00;;;;;;;30.91;38.32;96471.53;5064875;28;20082;-77
2022/07/03 09:09:59;;;;;;;1.27;0.80;;;;;;;31.29;37.39;96472.56;5050880;28;20441;-78
2022/07/03 09:12:25;;;;;;;1.25;0.70;;;;;;;31.57;35.87;96470.16;5052682;28;20086;-79
2022/07/03 09:14:51;;;;;;;1.40;0.70;;;;;;;31.17;36.81;96467.50;5059779;28;20032;-79
2022/07/03 09:17:17;;;;;;;2.08;1.00;;;;;;;31.42;36.81;96465.66;5073419;28;20037;-79
2022/07/03 09:19:47;;;;;;;1.88;1.00;;;;;;;31.67;35.68;96468.13;5074100;28;20119;-78
2022/07/03 09:22:21;;;;;;;1.35;0.90;;;;;;;31.60;35.22;96466.84;5059178;28;20047;-79
2022/07/03 09:24:49;;;;;;;0.95;0.88;;;;;;;31.56;32.93;96463.91;5042140;28;20028;-79
2022/07/03 09:27:20;;;;;;;1.15;0.77;;;;;;;31.19;34.27;96473.47;5055946;28;20577;-79
2022/07/03 09:30:09;;;;;;;1.65;0.80;;;;;;;31.62;33.63;96473.63;5054697;28;20051;-79
2022/07/03 09:32:38;;;;;;;2.15;0.88;;;;;;;31.51;34.35;96466.66;5052785;28;20509;-80
2022/07/03 09:35:18;;;;;;;1.40;0.80;;;;;;;31.33;32.30;96464.69;5057412;28;20410;-80
2022/07/03 09:37:58;;;;;;;4.55;1.02;;;;;;;32.02;34.33;96468.03;5040104;28;20529;-79
2022/07/03 09:40:26;;;;;;;2.00;0.90;;;;;;;31.66;32.43;96466.50;5054158;28;20116;-79
2022/07/03 09:43:01;;;;;;;1.65;0.80;;;;;;;31.61;31.75;96457.59;5056107;28;20039;-79
2022/07/03 09:45:47;;;;;;;1.80;0.80;;;;;;;32.08;34.16;96470.41;5054365;28;20028;-79
2022/07/03 09:48:37;;;;;;;1.50;0.82;;;;;;;31.75;33.71;96463.16;5068722;28;20050;-79
2022/07/03 09:51:26;;;;;;;2.58;0.73;;;;;;;31.88;31.51;96457.03;5027733;28;20059;-79
2022/07/03 09:53:52;;;;;;;0.80;0.70;;;;;;;32.25;31.05;96469.09;5034872;28;20056;-80
2022/07/03 09:56:19;;;;;;;2.40;0.73;;;;;;;31.33;30.35;96461.97;5073421;28;20417;-80
2022/07/03 09:59:08;;;;;;;3.28;0.95;;;;;;;31.50;31.01;96462.34;5036233;28;20029;-79
2022/07/03 10:01:45;;;;;;;1.20;0.60;;;;;;;32.00;30.34;96453.94;5073769;28;20121;-79
2022/07/03 10:04:13;;;;;;;1.33;0.75;;;;;;;32.15;31.54;96456.44;5053353;28;20029;-79
2022/07/03 10:06:59;;;;;;;1.45;0.82;;;;;;;31.54;30.39;96457.94;5071623;28;20029;-79
2022/07/03 10:09:28;;;;;;;0.63;0.63;;;;;;;32.58;28.98;96459.94;5076447;28;20062;-80
2022/07/03 10:11:55;;;;;;;1.77;0.80;;;;;;;32.26;30.24;96460.66;5042297;28;20102;-80
2022/07/03 10:14:26;;;;;;;1.42;0.98;;;;;;;32.73;30.82;96463.53;5051112;28;20098;-79
2022/07/03 10:16:53;;;;;;;1.13;0.80;;;;;;;31.61;32.60;96458.41;5055082;28;20494;-80
2022/07/03 10:19:24;;;;;;;2.25;1.02;;;;;;;32.37;32.21;96455.88;5069041;28;20115;-79
2022/07/03 10:21:56;;;;;;;2.00;0.80;;;;;;;31.18;33.08;96455.53;5054081;28;20043;-79
2022/07/03 10:24:23;;;;;;;2.22;0.90;;;;;;;31.75;31.49;96457.72;5069646;28;20060;-79
2022/07/03 10:26:50;;;;;;;1.17;0.98;;;;;;;32.26;30.28;96451.66;5050115;28;20021;-80
2022/07/03 10:29:17;;;;;;;2.80;1.00;;;;;;;31.92;31.34;96452.63;5034491;28;20028;-80
2022/07/03 10:31:45;;;;;;;1.38;0.90;;;;;;;32.65;31.86;96456.84;5049669;28;20028;-80
2022/07/03 10:34:12;;;;;;;3.38;1.08;;;;;;;32.42;31.69;96450.38;5049921;28;20039;-80
2022/07/03 10:36:39;;;;;;;2.72;0.82;;;;;;;32.24;30.55;96459.31;5070173;28;20028;-80
2022/07/03 10:39:06;;;;;;;1.73;0.88;;;;;;;32.23;29.57;96458.53;5050686;28;20040;-82
2022/07/03 10:47:48;;;;;;;3.13;0.85;;;;;;;32.57;30.31;96457.53;5064781;28;20828;-81
2022/07/03 10:50:19;;;;;;;2.40;0.90;;;;;;;32.02;30.97;96452.50;5072532;28;20029;-81
2022/07/03 10:52:45;;;;;;;1.20;0.90;;;;;;;32.08;29.22;96445.91;5051465;28;20039;-83
2022/07/03 10:55:13;;;;;;;2.85;1.08;;;;;;;33.07;29.51;96444.25;5061019;28;20037;-80
2022/07/03 10:57:40;;;;;;;1.42;0.70;;;;;;;32.49;29.38;96437.22;5050624;28;20091;-81
2022/07/03 11:00:12;;;;;;;3.78;2.40;;;;;;;32.99;28.45;96445.72;5047747;28;20025;-80
2022/07/03 11:02:47;;;;;;;8.68;4.45;;;;;;;32.75;28.73;96456.69;5050154;28;20174;-80
2022/07/03 11:05:35;;;;;;;4.57;1.02;;;;;;;33.81;27.10;96441.56;5053992;28;20052;-80
2022/07/03 11:08:01;;;;;;;1.10;0.68;;;;;;;33.14;28.00;96447.41;5058941;28;20036;-80
2022/07/03 11:10:28;;;;;;;2.10;1.00;;;;;;;33.33;30.30;96441.88;5056912;28;20117;-80
2022/07/03 11:13:04;;;;;;;2.88;0.70;;;;;;;33.18;28.87;96439.44;5047475;28;20012;-80
2022/07/03 11:15:32;;;;;;;1.60;0.93;;;;;;;33.33;29.02;96447.31;5026264;28;20121;-81
2022/07/03 11:18:10;;;;;;;1.17;0.80;;;;;;;32.43;28.73;96441.13;5046552;28;20064;-80
2022/07/03 11:20:42;;;;;;;1.50;0.90;;;;;;;33.13;29.95;96426.69;5010157;28;20558;-80
2022/07/03 11:23:29;;;;;;;0.98;0.80;;;;;;;32.35;30.03;96428.13;5033117;28;20462;-80
2022/07/03 11:25:56;;;;;;;1.33;0.77;;;;;;;32.12;30.08;96429.81;5020034;28;20039;-78
2022/07/03 11:28:52;;;;;;;1.45;0.80;;;;;;;32.32;30.32;96432.25;5012833;28;20661;-79
2022/07/03 11:31:19;;;;;;;2.75;0.77;;;;;;;31.75;29.42;96425.09;5016731;28;20828;-80
2022/07/03 11:33:56;;;;;;;3.38;1.08;;;;;;;32.81;28.96;96424.75;5043193;28;20036;-79
2022/07/03 11:36:21;;;;;;;2.72;0.98;;;;;;;31.69;30.28;96427.88;5058338;28;20048;-78
2022/07/03 11:38:53;;;;;;;2.20;0.70;;;;;;;32.22;30.03;96426.16;5047197;28;20074;-79
2022/07/03 11:41:18;;;;;;;1.80;0.80;;;;;;;32.27;30.20;96423.38;5053157;28;20669;-78
2022/07/03 11:43:53;;;;;;;2.25;0.60;;;;;;;32.62;29.24;96427.50;5051009;28;20028;-78
2022/07/03 11:46:21;;;;;;;1.58;0.80;;;;;;;33.01;27.93;96419.00;5051718;28;20033;-79
2022/07/03 11:48:47;;;;;;;1.25;1.05;;;;;;;33.27;27.74;96422.09;5060173;28;20039;-79
2022/07/03 11:51:14;;;;;;;0.80;0.80;;;;;;;32.05;28.94;96413.84;5052081;28;20734;-78